Webberville, Michigan
Current Conditions -  °F | °C
As of 2:15 PM on Sunday 23 Nov 2014 (Local Time) from KOZW Reporting Station
Overcast Overcast  
Wind Chill: 46°   Ceiling: 3600
Heat Index: 49°   Visibility: 10mi
Dew Point: 45°   Wind: 9mph
Humidity: 84%   Direction: 160°SSE
Pressure: 29.74"   Gusts: NA
Location:  42.67°N, 84.17°W
Report Text: KOZW 231915Z AUTO 16008KT 10SM OVC036 10/07 A2974 RMK AO2 T00970072
Loading
Personal Weather Stations






























Interactive Weather Map New forecast layout! Learn more

10-Day Weather Forecast

Advertisements
Track Severe Weather on mobile